< < Back
Terminal Aerodrome Forecast


Current Version              Previous Versions:   1  2  3  4  5  6  7  8  9  

Terminal Aerodrome Forecast

417
FTUS42 KTAE 200500
TAFVLD
TAF
KVLD 200539Z 2006/2106 00000KT P6SM OVC050
     FM201100 04003KT P6SM BKN050 OVC100
     FM210100 05005KT P6SM OVC020=



Latest METAR

566
SAUS70 KWBC 201600 RRK
MTRVLD
METAR KVLD 201553Z 02006KT 10SM OVC080 14/09 A3018 RMK AO2 SLP226
T01390094


USA.gov is the U.S. government's official web portal to all federal, state and local government web resources and services.